createdAt,value
2019-02-19T00:00:06.327Z,100670.17
2019-02-19T00:02:35.319Z,100661.23
2019-02-19T00:05:04.354Z,100661.23
2019-02-19T00:07:33.275Z,100664.95
2019-02-19T00:10:02.098Z,100666.72
2019-02-19T00:12:31.091Z,100670.77
2019-02-19T00:15:08.016Z,100671.19
2019-02-19T00:17:30.694Z,100663.13
2019-02-19T00:19:59.692Z,100665.50
2019-02-19T00:22:28.504Z,100661.16
2019-02-19T00:24:57.535Z,100664.64
2019-02-19T00:27:26.459Z,100665.36
2019-02-19T00:29:55.348Z,100667.52
2019-02-19T00:32:24.165Z,100669.90
2019-02-19T00:34:53.063Z,100665.89
2019-02-19T00:37:21.956Z,100668.98
2019-02-19T00:39:51.611Z,100668.17
2019-02-19T00:42:20.485Z,100668.93
2019-02-19T00:44:49.526Z,100665.79
2019-02-19T00:47:18.360Z,100664.05
2019-02-19T00:49:47.354Z,100668.16
2019-02-19T00:52:16.183Z,100663.98
2019-02-19T00:54:45.166Z,100662.59
2019-02-19T00:57:14.111Z,100664.55
2019-02-19T00:59:43.091Z,100665.79
2019-02-19T01:02:12.004Z,100667.90
2019-02-19T01:04:40.997Z,100664.00
2019-02-19T01:07:10.092Z,100666.37
2019-02-19T01:09:38.972Z,100669.70
2019-02-19T01:12:07.985Z,100674.31
2019-02-19T01:14:36.969Z,100667.18
2019-02-19T01:17:05.850Z,100670.95
2019-02-19T01:19:34.723Z,100670.81
2019-02-19T01:22:03.653Z,100678.20
2019-02-19T01:24:32.494Z,100673.94
2019-02-19T01:27:01.434Z,100680.16
2019-02-19T01:29:30.437Z,100680.64
2019-02-19T01:31:59.481Z,100677.02
2019-02-19T01:34:28.438Z,100681.55
2019-02-19T01:36:57.295Z,100670.11
2019-02-19T01:39:26.085Z,100672.59
2019-02-19T01:41:55.067Z,100672.62
2019-02-19T01:44:23.874Z,100668.02
2019-02-19T01:46:52.682Z,100669.27
2019-02-19T01:49:21.666Z,100678.61
2019-02-19T01:51:50.586Z,100674.13
2019-02-19T01:54:19.434Z,100682.49
2019-02-19T01:56:48.304Z,100679.70
2019-02-19T01:59:17.238Z,100678.47
2019-02-19T02:01:46.141Z,100679.39
2019-02-19T02:04:15.032Z,100674.56
2019-02-19T02:06:43.886Z,100668.34
2019-02-19T02:09:12.808Z,100669.58
2019-02-19T02:11:41.631Z,100659.63
2019-02-19T02:14:10.537Z,100663.75
2019-02-19T02:16:39.474Z,100659.58
2019-02-19T02:19:08.302Z,100653.53
2019-02-19T02:21:37.161Z,100649.36
2019-02-19T02:24:06.214Z,100640.59
2019-02-19T02:26:35.082Z,100644.50
2019-02-19T02:29:04.066Z,100642.73
2019-02-19T02:31:32.932Z,100649.23
2019-02-19T02:34:01.855Z,100653.39
2019-02-19T02:36:30.868Z,100650.95
2019-02-19T02:38:59.874Z,100643.71
2019-02-19T02:41:28.773Z,100647.64
2019-02-19T02:43:57.715Z,100647.84
2019-02-19T02:46:26.638Z,100644.02
2019-02-19T02:48:55.530Z,100649.05
2019-02-19T02:51:24.320Z,100648.36
2019-02-19T02:53:53.316Z,100646.36
2019-02-19T02:56:22.187Z,100651.04
2019-02-19T02:58:51.022Z,100654.08
2019-02-19T03:01:20.036Z,100652.93
2019-02-19T03:03:48.908Z,100646.31
2019-02-19T03:06:46.193Z,100650.06
2019-02-19T03:09:15.097Z,100655.06
2019-02-19T03:11:44.035Z,100651.84
2019-02-19T03:14:12.944Z,100646.64
2019-02-19T03:16:41.711Z,100651.40
2019-02-19T03:19:10.589Z,100649.88
2019-02-19T03:21:39.415Z,100647.09
2019-02-19T03:24:08.414Z,100648.80
2019-02-19T03:26:37.225Z,100646.22
2019-02-19T03:29:06.039Z,100650.02
2019-02-19T03:31:34.950Z,100650.20
2019-02-19T03:34:04.011Z,100650.22
2019-02-19T03:36:33.009Z,100654.67
2019-02-19T03:39:01.805Z,100655.91
2019-02-19T03:41:31.115Z,100653.55
2019-02-19T03:44:00.050Z,100655.21
2019-02-19T03:46:30.424Z,100660.25
2019-02-19T03:48:59.431Z,100658.55
2019-02-19T03:51:28.417Z,100664.55
2019-02-19T03:53:57.506Z,100659.22
2019-02-19T03:56:26.396Z,100660.22
2019-02-19T03:58:55.294Z,100661.50
2019-02-19T04:01:24.288Z,100668.64
2019-02-19T04:03:53.260Z,100668.93
2019-02-19T04:06:22.108Z,100664.48
2019-02-19T04:08:50.963Z,100664.19
2019-02-19T04:11:19.948Z,100669.97
2019-02-19T04:13:48.974Z,100674.81
2019-02-19T04:16:21.311Z,100668.73
2019-02-19T04:18:48.409Z,100667.67
2019-02-19T04:21:17.329Z,100667.06
2019-02-19T04:23:46.133Z,100666.30
2019-02-19T04:26:15.132Z,100668.54
2019-02-19T04:28:44.384Z,100670.75
2019-02-19T04:31:13.212Z,100673.05
2019-02-19T04:33:42.080Z,100676.72
2019-02-19T04:36:10.912Z,100676.72
2019-02-19T04:38:39.760Z,100681.17
2019-02-19T04:41:08.691Z,100684.65
2019-02-19T04:43:37.582Z,100671.29
2019-02-19T04:46:06.483Z,100672.42
2019-02-19T04:48:35.408Z,100674.02
2019-02-19T04:51:04.307Z,100675.25
2019-02-19T04:53:33.192Z,100678.44
2019-02-19T04:56:02.183Z,100686.06
2019-02-19T04:58:31.084Z,100678.69
2019-02-19T05:01:00.079Z,100680.13
2019-02-19T05:03:28.872Z,100677.09
2019-02-19T05:05:57.784Z,100677.22
2019-02-19T05:08:26.562Z,100684.87
2019-02-19T05:10:55.439Z,100692.27
2019-02-19T05:13:24.302Z,100689.97
2019-02-19T05:15:53.231Z,100695.47
2019-02-19T05:18:22.121Z,100703.62
2019-02-19T05:20:51.053Z,100702.64
2019-02-19T05:23:19.911Z,100704.36
2019-02-19T05:25:48.769Z,100708.83
2019-02-19T05:28:17.669Z,100713.30
2019-02-19T05:30:46.723Z,100700.29
2019-02-19T05:33:15.722Z,100703.39
2019-02-19T05:35:44.635Z,100702.30
2019-02-19T05:38:13.571Z,100691.77
2019-02-19T05:40:42.624Z,100690.27
2019-02-19T05:43:11.508Z,100692.05
2019-02-19T05:45:40.405Z,100693.03
2019-02-19T05:48:09.323Z,100693.03
2019-02-19T05:50:38.197Z,100690.30
2019-02-19T05:53:07.153Z,100691.44
2019-02-19T05:55:36.476Z,100705.02
2019-02-19T05:58:05.273Z,100703.42
2019-02-19T06:00:34.261Z,100695.86
2019-02-19T06:03:03.136Z,100698.85
2019-02-19T06:05:32.142Z,100696.14
2019-02-19T06:08:01.011Z,100696.72
2019-02-19T06:10:29.977Z,100698.08
2019-02-19T06:12:58.783Z,100706.08
2019-02-19T06:15:27.710Z,100705.66
2019-02-19T06:17:56.512Z,100710.20
2019-02-19T06:20:25.593Z,100715.58
2019-02-19T06:22:54.376Z,100714.41
2019-02-19T06:25:23.313Z,100716.38
2019-02-19T06:27:52.175Z,100722.55
2019-02-19T06:30:21.101Z,100720.16
2019-02-19T06:32:50.075Z,100720.44
2019-02-19T06:35:19.013Z,100722.41
2019-02-19T06:37:47.998Z,100726.39
2019-02-19T06:40:25.594Z,100730.98
2019-02-19T06:42:54.561Z,100735.30
2019-02-19T06:45:23.525Z,100748.61
2019-02-19T06:47:52.482Z,100754.09
2019-02-19T06:50:21.474Z,100734.86
2019-02-19T06:52:50.436Z,100745.45
2019-02-19T06:55:20.369Z,100750.10
2019-02-19T06:57:49.247Z,100763.31
2019-02-19T07:00:18.159Z,100758.50
2019-02-19T07:02:52.374Z,100756.91
2019-02-19T07:05:23.034Z,100769.58
2019-02-19T07:07:52.026Z,100761.72
2019-02-19T07:10:20.918Z,100768.04
2019-02-19T07:12:49.985Z,100776.22
2019-02-19T07:15:18.897Z,100773.74
2019-02-19T07:17:48.005Z,100771.64
2019-02-19T07:20:17.049Z,100773.89
2019-02-19T07:22:46.008Z,100771.31
2019-02-19T07:25:14.908Z,100781.81
2019-02-19T07:27:43.734Z,100796.88
2019-02-19T07:30:12.770Z,100799.72
2019-02-19T07:32:41.594Z,100810.89
2019-02-19T07:35:10.565Z,100814.30
2019-02-19T07:37:39.591Z,100817.89
2019-02-19T07:40:08.575Z,100817.55
2019-02-19T07:42:37.535Z,100820.92
2019-02-19T07:45:06.932Z,100824.20
2019-02-19T07:47:36.822Z,100824.92
2019-02-19T07:50:06.492Z,100825.91
2019-02-19T07:52:35.373Z,100825.98
2019-02-19T07:55:04.466Z,100826.76
2019-02-19T07:57:33.380Z,100834.08
2019-02-19T08:00:02.456Z,100836.63
2019-02-19T08:02:31.304Z,100835.52
2019-02-19T08:05:00.328Z,100841.02
2019-02-19T08:07:29.289Z,100844.70
2019-02-19T08:09:58.131Z,100844.19
2019-02-19T08:12:27.125Z,100850.53
2019-02-19T08:14:55.904Z,100844.11
2019-02-19T08:17:32.883Z,100854.80
2019-02-19T08:19:55.724Z,100859.72
2019-02-19T08:22:24.914Z,100862.70
2019-02-19T08:24:53.807Z,100841.33
2019-02-19T08:27:22.680Z,100870.36
2019-02-19T08:29:51.478Z,100872.50
2019-02-19T08:32:20.454Z,100873.92
2019-02-19T08:34:49.460Z,100885.16
2019-02-19T08:37:18.353Z,100887.27
2019-02-19T08:39:47.372Z,100887.14
2019-02-19T08:42:16.350Z,100885.66
2019-02-19T08:44:45.227Z,100892.31
2019-02-19T08:47:14.047Z,100897.56
2019-02-19T08:49:42.895Z,100899.52
2019-02-19T08:52:11.798Z,100902.66
2019-02-19T08:54:40.610Z,100899.28
2019-02-19T08:57:09.507Z,100896.12
2019-02-19T08:59:38.402Z,100901.28
2019-02-19T09:02:07.348Z,100900.12
2019-02-19T09:04:36.225Z,100901.45
2019-02-19T09:07:05.520Z,100896.30
2019-02-19T09:09:34.377Z,100909.58
2019-02-19T09:12:03.343Z,100907.84
2019-02-19T09:14:32.251Z,100901.66
2019-02-19T09:17:02.116Z,100910.69
2019-02-19T09:19:31.057Z,100909.28
2019-02-19T09:21:59.969Z,100909.86
2019-02-19T09:24:28.877Z,100910.73
2019-02-19T09:26:57.666Z,100914.76
2019-02-19T09:29:26.463Z,100926.45
2019-02-19T09:31:55.375Z,100925.78
2019-02-19T09:34:24.339Z,100915.89
2019-02-19T09:36:53.255Z,100913.94
2019-02-19T09:39:22.297Z,100914.64
2019-02-19T09:41:51.280Z,100904.20
2019-02-19T09:44:20.165Z,100916.95
2019-02-19T09:46:49.046Z,100915.01
2019-02-19T09:49:18.028Z,100915.83
2019-02-19T09:51:46.968Z,100923.81
2019-02-19T09:54:15.809Z,100923.67
2019-02-19T09:56:44.699Z,100928.28
2019-02-19T09:59:13.619Z,100931.05
2019-02-19T10:01:42.612Z,100936.30
2019-02-19T10:04:11.491Z,100949.65
2019-02-19T10:06:40.506Z,100951.48
2019-02-19T10:09:09.888Z,100956.86
2019-02-19T10:11:39.764Z,100961.23
2019-02-19T10:14:08.895Z,100958.99
2019-02-19T10:16:41.552Z,100956.91
2019-02-19T10:19:08.627Z,100966.07
2019-02-19T10:21:37.537Z,100966.60
2019-02-19T10:24:06.585Z,100964.38
2019-02-19T10:26:35.392Z,100951.77
2019-02-19T10:29:04.291Z,100953.81
2019-02-19T10:31:33.340Z,100945.16
2019-02-19T10:34:02.376Z,100954.33
2019-02-19T10:36:31.353Z,100960.83
2019-02-19T10:39:00.344Z,100972.13
2019-02-19T10:41:29.165Z,100982.13
2019-02-19T10:43:58.024Z,100982.45
2019-02-19T10:46:27.039Z,100982.09
2019-02-19T10:48:55.957Z,100981.73
2019-02-19T10:51:24.954Z,100981.66
2019-02-19T10:53:53.903Z,100975.77
2019-02-19T10:56:22.904Z,100975.30
2019-02-19T10:58:51.817Z,100979.69
2019-02-19T11:01:20.743Z,100979.38
2019-02-19T11:03:49.772Z,100981.63
2019-02-19T11:06:18.925Z,100980.20
2019-02-19T11:08:47.943Z,100981.45
2019-02-19T11:11:16.918Z,100977.30
2019-02-19T11:13:45.878Z,100975.61
2019-02-19T11:16:14.945Z,100975.17
2019-02-19T11:18:44.255Z,100971.67
2019-02-19T11:21:19.478Z,100970.79
2019-02-19T11:23:44.730Z,100960.79
2019-02-19T11:26:13.685Z,100960.79
2019-02-19T11:28:42.557Z,100965.72
2019-02-19T11:31:11.602Z,100967.72
2019-02-19T11:33:40.726Z,100968.47
2019-02-19T11:36:09.856Z,100968.53
2019-02-19T11:38:38.888Z,100959.39
2019-02-19T11:41:07.886Z,100960.88
2019-02-19T11:43:36.824Z,100961.22
2019-02-19T11:46:06.251Z,100962.61
2019-02-19T11:48:37.140Z,100956.30
2019-02-19T11:51:06.064Z,100946.28
2019-02-19T11:53:34.971Z,100945.08
2019-02-19T11:56:03.933Z,100944.33
2019-02-19T11:58:32.862Z,100934.09
2019-02-19T12:01:02.000Z,100933.77
2019-02-19T12:03:30.896Z,100932.31
2019-02-19T12:05:59.877Z,100930.27
2019-02-19T12:08:28.825Z,100922.17
2019-02-19T12:10:57.738Z,100917.83
2019-02-19T12:13:27.043Z,100920.20
2019-02-19T12:15:55.855Z,100921.54
2019-02-19T12:18:24.676Z,100919.37
2019-02-19T12:20:53.664Z,100911.42
2019-02-19T12:23:22.530Z,100915.56
2019-02-19T12:25:51.491Z,100914.62
2019-02-19T12:28:20.367Z,100907.91
2019-02-19T12:30:49.307Z,100905.67
2019-02-19T12:33:18.295Z,100909.79
2019-02-19T12:35:47.248Z,100898.47
2019-02-19T12:38:16.152Z,100906.97
2019-02-19T12:40:45.193Z,100895.13
2019-02-19T12:43:14.519Z,100895.61
2019-02-19T12:45:43.909Z,100892.27
2019-02-19T12:48:12.900Z,100900.00
2019-02-19T12:50:41.840Z,100909.39
2019-02-19T12:53:10.863Z,100897.48
2019-02-19T12:55:39.857Z,100895.70
2019-02-19T12:58:08.926Z,100896.53
2019-02-19T13:00:37.964Z,100891.88
2019-02-19T13:03:07.022Z,100891.88
2019-02-19T13:05:35.959Z,100890.61
2019-02-19T13:08:04.848Z,100891.60
2019-02-19T13:10:33.856Z,100890.09
2019-02-19T13:13:02.618Z,100881.19
2019-02-19T13:15:31.497Z,100885.95
2019-02-19T13:18:00.473Z,100886.71
2019-02-19T13:20:29.363Z,100887.54
2019-02-19T13:22:58.133Z,100873.97
2019-02-19T13:25:27.156Z,100872.98
2019-02-19T13:27:56.026Z,100868.13
2019-02-19T13:30:25.024Z,100872.56
2019-02-19T13:32:53.928Z,100873.83
2019-02-19T13:35:22.779Z,100876.95
2019-02-19T13:37:51.780Z,100867.75
2019-02-19T13:40:20.679Z,100875.89
2019-02-19T13:42:49.591Z,100870.78
2019-02-19T13:45:18.483Z,100873.10
2019-02-19T13:47:47.510Z,100872.25
2019-02-19T13:50:18.385Z,100876.53
2019-02-19T13:53:09.242Z,100877.87
2019-02-19T13:55:41.322Z,100873.53
2019-02-19T13:58:10.139Z,100880.59
2019-02-19T14:00:41.574Z,100880.57
2019-02-19T14:03:10.580Z,100888.93
2019-02-19T14:05:39.585Z,100882.75
2019-02-19T14:08:14.214Z,100888.11
2019-02-19T14:10:39.137Z,100883.80
2019-02-19T14:13:08.407Z,100880.61
2019-02-19T14:15:59.866Z,100879.25
2019-02-19T14:18:47.839Z,100884.55
2019-02-19T14:21:44.909Z,100876.30
2019-02-19T14:24:51.425Z,100879.72
2019-02-19T14:27:48.283Z,100882.16
2019-02-19T14:30:36.239Z,100875.23
2019-02-19T14:33:20.275Z,100877.91
2019-02-19T14:36:14.580Z,100881.39
2019-02-19T14:38:52.337Z,100882.34
2019-02-19T14:41:40.340Z,100874.50
2019-02-19T14:44:28.295Z,100884.04
2019-02-19T14:47:34.393Z,100878.95
2019-02-19T14:50:25.212Z,100884.87
2019-02-19T14:53:12.267Z,100887.52
2019-02-19T14:56:03.493Z,100883.42
2019-02-19T14:58:50.165Z,100872.19
2019-02-19T15:01:50.217Z,100881.25
2019-02-19T15:04:36.567Z,100876.77
2019-02-19T15:07:30.494Z,100882.60
2019-02-19T15:10:27.489Z,100878.25
2019-02-19T15:13:18.428Z,100876.78
2019-02-19T15:16:09.761Z,100875.34
2019-02-19T15:19:18.366Z,100875.31
2019-02-19T15:21:57.459Z,100875.59
2019-02-19T15:24:43.653Z,100866.09
2019-02-19T15:27:29.056Z,100862.80
2019-02-19T15:30:15.662Z,100878.76
2019-02-19T15:33:18.985Z,100872.22
2019-02-19T15:36:01.811Z,100877.13
2019-02-19T15:38:48.555Z,100877.81
2019-02-19T15:41:31.617Z,100875.86
2019-02-19T15:44:28.501Z,100876.08
2019-02-19T15:47:09.626Z,100868.91
2019-02-19T15:50:13.160Z,100883.82
2019-02-19T15:52:51.943Z,100878.77
2019-02-19T15:55:40.498Z,100878.31
2019-02-19T15:58:28.548Z,100882.52
2019-02-19T16:01:16.416Z,100880.20
2019-02-19T16:03:57.232Z,100884.67
2019-02-19T16:06:33.483Z,100889.38
2019-02-19T16:09:19.811Z,100884.95
2019-02-19T16:12:01.191Z,100891.38
2019-02-19T16:14:49.913Z,100888.89
2019-02-19T16:17:43.664Z,100882.75
2019-02-19T16:20:27.955Z,100884.58
2019-02-19T16:23:11.586Z,100884.64
2019-02-19T16:25:54.837Z,100887.70
2019-02-19T16:28:42.665Z,100888.13
2019-02-19T16:31:36.966Z,100890.34
2019-02-19T16:34:21.107Z,100889.81
2019-02-19T16:37:09.055Z,100895.66
2019-02-19T16:39:55.878Z,100889.52
2019-02-19T16:42:42.663Z,100885.56
2019-02-19T16:45:32.081Z,100889.23
2019-02-19T16:48:22.648Z,100894.48
2019-02-19T16:51:07.853Z,100893.36
2019-02-19T16:53:50.349Z,100895.82
2019-02-19T16:56:32.129Z,100897.61
2019-02-19T16:59:18.971Z,100897.10
2019-02-19T17:02:18.948Z,100894.86
2019-02-19T17:05:19.027Z,100900.82
2019-02-19T17:08:22.157Z,100902.78
2019-02-19T17:11:09.791Z,100910.87
2019-02-19T17:13:48.157Z,100913.46
2019-02-19T17:16:40.275Z,100916.73
2019-02-19T17:19:23.333Z,100920.52
2019-02-19T17:22:10.001Z,100922.84
2019-02-19T17:25:16.478Z,100927.80
2019-02-19T17:28:03.161Z,100927.12
2019-02-19T17:30:57.270Z,100927.22
2019-02-19T17:33:43.889Z,100938.64
2019-02-19T17:36:19.297Z,100936.01
2019-02-19T17:39:07.132Z,100937.70
2019-02-19T17:41:50.995Z,100938.23
2019-02-19T17:44:35.037Z,100937.38
2019-02-19T17:47:22.065Z,100938.06
2019-02-19T17:50:00.851Z,100945.95
2019-02-19T17:52:54.724Z,100946.80
2019-02-19T17:55:41.835Z,100947.16
2019-02-19T17:58:39.298Z,100920.46
2019-02-19T18:01:17.199Z,100949.50
2019-02-19T18:04:03.702Z,100953.50
2019-02-19T18:06:44.255Z,100956.17
2019-02-19T18:09:21.159Z,100960.85
2019-02-19T18:12:11.244Z,100960.52
2019-02-19T18:14:49.792Z,100963.84
2019-02-19T18:17:43.651Z,100969.36
2019-02-19T18:20:12.684Z,100968.52
2019-02-19T18:22:41.548Z,100966.19
2019-02-19T18:25:10.408Z,100969.86
2019-02-19T18:27:39.285Z,100976.85
2019-02-19T18:30:08.502Z,100972.86
2019-02-19T18:32:37.520Z,100975.20
2019-02-19T18:35:06.518Z,100975.03
2019-02-19T18:37:35.471Z,100980.20
2019-02-19T18:40:04.625Z,100977.36
2019-02-19T18:42:33.405Z,100978.17
2019-02-19T18:45:02.394Z,100982.83
2019-02-19T18:47:31.390Z,100988.84
2019-02-19T18:50:00.290Z,100988.67
2019-02-19T18:52:29.203Z,100978.95
2019-02-19T18:54:58.122Z,100981.80
2019-02-19T18:57:26.957Z,100985.11
2019-02-19T18:59:55.752Z,100984.75
2019-02-19T19:02:24.764Z,100992.41
2019-02-19T19:04:53.724Z,100988.42
2019-02-19T19:07:22.805Z,100993.56
2019-02-19T19:09:51.615Z,101002.20
2019-02-19T19:12:20.574Z,101002.90
2019-02-19T19:14:49.484Z,101005.23
2019-02-19T19:17:18.270Z,101008.11
2019-02-19T19:19:47.117Z,101012.75
2019-02-19T19:22:15.993Z,100980.34
2019-02-19T19:24:44.815Z,101013.06
2019-02-19T19:27:13.643Z,101020.56
2019-02-19T19:29:42.427Z,101023.67
2019-02-19T19:32:11.219Z,101028.72
2019-02-19T19:34:40.109Z,101027.36
2019-02-19T19:37:08.990Z,101028.66
2019-02-19T19:39:37.837Z,101031.50
2019-02-19T19:42:06.794Z,101027.33
2019-02-19T19:44:35.766Z,101026.00
2019-02-19T19:47:04.555Z,101028.97
2019-02-19T19:49:33.365Z,101035.12
2019-02-19T19:52:02.476Z,101026.90
2019-02-19T19:54:31.298Z,101035.69
2019-02-19T19:57:00.109Z,101031.36
2019-02-19T19:59:29.109Z,101030.03
2019-02-19T20:01:59.385Z,101041.89
2019-02-19T20:04:30.959Z,101039.69
2019-02-19T20:07:21.280Z,101039.52
2019-02-19T20:09:53.719Z,101038.48
2019-02-19T20:12:23.144Z,101004.30
2019-02-19T20:14:52.831Z,101039.07
2019-02-19T20:17:28.705Z,101040.56
2019-02-19T20:19:57.689Z,101036.23
2019-02-19T20:22:26.647Z,101037.06
2019-02-19T20:24:55.584Z,101036.06
2019-02-19T20:27:24.471Z,101039.59
2019-02-19T20:29:53.403Z,101044.96
2019-02-19T20:32:22.293Z,101043.09
2019-02-19T20:34:51.111Z,101044.86
2019-02-19T20:37:22.114Z,101045.81
2019-02-19T20:39:50.643Z,101049.81
2019-02-19T20:42:19.680Z,101057.95
2019-02-19T20:44:48.679Z,101047.81
2019-02-19T20:47:17.650Z,101056.42
2019-02-19T20:49:46.544Z,101057.19
2019-02-19T20:52:15.450Z,101058.73
2019-02-19T20:54:44.421Z,101058.52
2019-02-19T20:57:13.451Z,101055.07
2019-02-19T20:59:42.263Z,101059.90
2019-02-19T21:02:11.291Z,101057.50
2019-02-19T21:04:40.090Z,101062.52
2019-02-19T21:07:09.201Z,101064.87
2019-02-19T21:09:43.720Z,101065.96
2019-02-19T21:12:08.776Z,101071.03
2019-02-19T21:14:37.671Z,101066.65
2019-02-19T21:17:06.711Z,101066.72
2019-02-19T21:19:35.551Z,101075.87
2019-02-19T21:22:04.439Z,101073.02
2019-02-19T21:24:33.343Z,101079.02
2019-02-19T21:27:02.362Z,101077.45
2019-02-19T21:29:31.295Z,101073.03
2019-02-19T21:32:00.312Z,101081.98
2019-02-19T21:34:29.260Z,101073.52
2019-02-19T21:36:59.043Z,101075.99
2019-02-19T21:39:28.068Z,101076.52
2019-02-19T21:41:57.205Z,101074.70
2019-02-19T21:44:26.298Z,101066.05
2019-02-19T21:46:55.394Z,101068.88
2019-02-19T21:49:25.444Z,101071.27
2019-02-19T21:51:55.218Z,101073.66
2019-02-19T21:54:27.728Z,101074.64
2019-02-19T21:56:59.899Z,101077.48
2019-02-19T21:59:29.577Z,101084.32
2019-02-19T22:02:02.203Z,101085.19
2019-02-19T22:04:32.124Z,101086.65
2019-02-19T22:07:01.301Z,101081.56
2019-02-19T22:09:30.773Z,101084.37
2019-02-19T22:12:00.450Z,101087.45
2019-02-19T22:14:30.094Z,101084.72
2019-02-19T22:16:59.757Z,101092.98
2019-02-19T22:19:29.073Z,101085.38
2019-02-19T22:22:12.379Z,101091.66
2019-02-19T22:24:41.901Z,101089.95
2019-02-19T22:27:11.412Z,101093.52
2019-02-19T22:29:41.009Z,101092.00
2019-02-19T22:32:11.519Z,101093.81
2019-02-19T22:34:41.052Z,101095.34
2019-02-19T22:37:10.406Z,101094.27
2019-02-19T22:39:39.509Z,101092.09
2019-02-19T22:42:10.683Z,101095.98
2019-02-19T22:44:39.980Z,101093.81
2019-02-19T22:47:09.356Z,101090.81
2019-02-19T22:49:38.851Z,101087.38
2019-02-19T22:52:12.513Z,101091.50
2019-02-19T22:55:03.803Z,101093.15
2019-02-19T22:57:33.600Z,101093.64
2019-02-19T23:00:04.838Z,101095.03
2019-02-19T23:02:34.410Z,101093.11
2019-02-19T23:05:03.595Z,101092.31
2019-02-19T23:07:32.861Z,101094.77
2019-02-19T23:10:02.544Z,101094.60
2019-02-19T23:12:31.667Z,101099.59
2019-02-19T23:15:04.247Z,101103.88
2019-02-19T23:17:36.367Z,101110.88
2019-02-19T23:20:06.121Z,101108.13
2019-02-19T23:22:35.535Z,101112.80
2019-02-19T23:25:05.063Z,101109.80
2019-02-19T23:27:34.307Z,101108.02
2019-02-19T23:30:05.393Z,101117.22
2019-02-19T23:32:38.267Z,101112.94
2019-02-19T23:35:36.252Z,101119.45
2019-02-19T23:38:10.812Z,101117.63
2019-02-19T23:40:41.409Z,101111.42
2019-02-19T23:43:11.283Z,101122.73
2019-02-19T23:45:43.392Z,101112.64
2019-02-19T23:48:12.658Z,101123.60
2019-02-19T23:50:46.155Z,101123.60
2019-02-19T23:53:18.812Z,101115.83
2019-02-19T23:55:48.109Z,101113.09
2019-02-19T23:58:22.263Z,101117.06
